Time;durP1;ratioP1;P1;durP2;ratioP2;P2;SDS_P1;SDS_P2;PMS_P1;PMS_P2;Temp;Humidity;BMP_temperature;BMP_pressure;BME280_temperature;BME280_humidity;BME280_pressure;Samples;Min_cycle;Max_cycle;Signal;HPM_P1;HPM_P2
2021/11/10 00:00:34;;;;;;;4.68;0.88;;;;;17.10;100918.00;;;;5108696;28;20039;-72
2021/11/10 00:03:04;;;;;;;6.05;0.80;;;;;17.00;100916.00;;;;5108634;28;20068;-72
2021/11/10 00:05:33;;;;;;;3.63;0.65;;;;;17.00;100906.00;;;;5108344;28;20093;-72
2021/11/10 00:08:04;;;;;;;2.83;0.75;;;;;16.90;100919.00;;;;5108306;28;20050;-73
2021/11/10 00:10:34;;;;;;;15.45;1.25;;;;;16.80;100895.00;;;;5107637;28;20039;-74
2021/11/10 00:13:27;;;;;;;7.83;1.07;;;;;16.90;100924.00;;;;5106585;28;20059;-72
2021/11/10 00:15:54;;;;;;;480.80;37.03;;;;;16.80;100907.00;;;;5107634;28;20372;-72
2021/11/10 00:18:24;;;;;;;12.27;1.80;;;;;16.70;100927.00;;;;5108573;28;20040;-71
2021/11/10 00:20:54;;;;;;;1173.30;115.40;;;;;16.80;100928.00;;;;5106506;28;20043;-71
2021/11/10 00:23:23;;;;;;;1999.90;798.58;;;;;16.80;100920.00;;;;5107174;28;20413;-71
2021/11/10 00:25:53;;;;;;;7.38;0.90;;;;;16.70;100920.00;;;;5106665;28;20044;-73
2021/11/10 00:28:22;;;;;;;3.28;1.02;;;;;16.80;100933.00;;;;5107460;28;20029;-72
2021/11/10 00:30:52;;;;;;;9.30;1.35;;;;;16.70;100924.00;;;;5107752;28;20043;-72
2021/11/10 00:33:26;;;;;;;10.85;1.20;;;;;16.50;100939.00;;;;5107369;28;20044;-71
2021/11/10 00:35:56;;;;;;;1993.28;301.92;;;;;16.40;100907.00;;;;5088654;28;20051;-72
2021/11/10 00:38:26;;;;;;;12.10;1.50;;;;;16.40;100924.00;;;;5107552;28;20050;-72
2021/11/10 00:40:58;;;;;;;1399.25;253.23;;;;;16.30;100932.00;;;;5107202;28;20040;-71
2021/11/10 00:43:28;;;;;;;9.13;1.10;;;;;16.30;100940.00;;;;5106444;28;20048;-72
2021/11/10 00:45:57;;;;;;;1999.90;854.42;;;;;16.30;100934.00;;;;5088933;28;20086;-72
2021/11/10 00:48:27;;;;;;;1999.90;432.58;;;;;16.30;100893.00;;;;5107149;28;20040;-71
2021/11/10 00:50:57;;;;;;;770.10;85.43;;;;;16.10;100916.00;;;;5089604;28;20502;-72
2021/11/10 00:53:26;;;;;;;211.05;20.90;;;;;16.10;100914.00;;;;5105194;28;20524;-71
2021/11/10 00:55:57;;;;;;;1999.90;441.20;;;;;16.10;100912.00;;;;5088885;28;20047;-72
2021/11/10 00:58:26;;;;;;;887.15;52.67;;;;;16.00;100932.00;;;;5106020;28;20058;-73
2021/11/10 01:00:56;;;;;;;461.48;50.85;;;;;15.90;100934.00;;;;5107738;28;20077;-71
2021/11/10 01:03:27;;;;;;;644.88;34.30;;;;;16.00;100948.00;;;;5105652;28;20047;-72
2021/11/10 01:05:58;;;;;;;1198.93;110.35;;;;;16.00;100928.00;;;;5086630;28;20134;-72
2021/11/10 01:08:28;;;;;;;1999.90;292.42;;;;;16.00;100948.00;;;;5087836;28;20050;-72
2021/11/10 01:10:58;;;;;;;1352.18;143.52;;;;;16.00;100942.00;;;;5107456;28;20505;-72
2021/11/10 01:13:29;;;;;;;1717.10;224.32;;;;;16.00;100955.00;;;;5089183;28;20039;-72
2021/11/10 01:16:01;;;;;;;1999.90;999.90;;;;;16.00;100954.00;;;;5088762;28;20059;-73
2021/11/10 01:18:31;;;;;;;1476.40;391.60;;;;;16.00;100935.00;;;;5088451;28;20054;-71
2021/11/10 01:21:05;;;;;;;10.52;1.02;;;;;16.00;100937.00;;;;5088626;28;20519;-71
2021/11/10 01:23:35;;;;;;;1819.97;349.13;;;;;16.10;100940.00;;;;5106895;28;20044;-72
2021/11/10 01:26:05;;;;;;;1830.32;281.05;;;;;16.10;100944.00;;;;5104589;28;20297;-72
2021/11/10 01:28:36;;;;;;;50.35;7.45;;;;;16.20;100941.00;;;;5087506;28;20047;-71
2021/11/10 01:31:06;;;;;;;271.92;18.67;;;;;16.20;100959.00;;;;5088289;28;20483;-71
2021/11/10 01:33:35;;;;;;;1894.90;264.25;;;;;16.10;100950.00;;;;5105076;28;20056;-71
2021/11/10 01:36:07;;;;;;;1526.57;259.00;;;;;16.10;100932.00;;;;5088992;28;20043;-71
2021/11/10 01:38:37;;;;;;;1756.53;163.90;;;;;16.00;100938.00;;;;5106595;28;20039;-72
2021/11/10 01:41:08;;;;;;;656.80;47.67;;;;;15.90;100954.00;;;;5106971;28;20062;-72
2021/11/10 01:43:42;;;;;;;1096.53;108.07;;;;;15.90;100952.00;;;;5088936;28;20101;-72
2021/11/10 01:46:12;;;;;;;615.80;37.38;;;;;15.90;100953.00;;;;5107594;28;20049;-71
2021/11/10 01:48:42;;;;;;;501.13;39.17;;;;;15.90;100959.00;;;;5109709;28;20036;-72
2021/11/10 01:51:12;;;;;;;1948.30;335.60;;;;;15.80;100943.00;;;;5109557;28;20047;-71
2021/11/10 01:53:41;;;;;;;219.88;19.65;;;;;15.70;100958.00;;;;5110854;28;20501;-72
2021/11/10 01:56:12;;;;;;;1999.90;407.00;;;;;15.50;100951.00;;;;5091876;28;20074;-72
2021/11/10 01:58:41;;;;;;;9.15;1.45;;;;;15.60;100961.00;;;;5092809;28;20074;-74
2021/11/10 02:01:11;;;;;;;1328.55;448.10;;;;;15.60;100916.00;;;;5092977;28;20071;-73
2021/11/10 02:03:43;;;;;;;578.88;100.13;;;;;15.40;100932.00;;;;5092321;28;20043;-72
2021/11/10 02:06:23;;;;;;;186.93;69.57;;;;;15.30;100930.00;;;;5091592;28;20044;-71
2021/11/10 02:09:25;;;;;;;14.43;1.20;;;;;15.10;100923.00;;;;5075427;28;20056;-71
2021/11/10 02:11:58;;;;;;;15.02;1.27;;;;;15.00;100931.00;;;;5091801;28;20047;-70
2021/11/10 02:14:32;;;;;;;11.25;1.58;;;;;15.00;100934.00;;;;5092224;28;20078;-71
2021/11/10 02:17:02;;;;;;;9.57;2.25;;;;;15.00;100915.00;;;;5092404;28;20051;-71
2021/11/10 02:19:33;;;;;;;661.60;156.48;;;;;14.90;100921.00;;;;5091947;28;20411;-70
2021/11/10 02:22:16;;;;;;;229.50;34.17;;;;;14.80;100903.00;;;;5092255;28;20043;-70
2021/11/10 02:24:46;;;;;;;1999.90;414.55;;;;;14.80;100896.00;;;;5109024;28;20780;-71
2021/11/10 02:27:22;;;;;;;1244.60;239.20;;;;;14.90;100919.00;;;;5091722;28;20055;-71
2021/11/10 02:29:52;;;;;;;909.00;110.15;;;;;14.80;100916.00;;;;5110248;28;20085;-71
2021/11/10 02:32:21;;;;;;;1999.90;302.45;;;;;14.70;100903.00;;;;5108443;28;20051;-71
2021/11/10 02:34:51;;;;;;;1999.90;324.15;;;;;14.70;100912.00;;;;5091657;28;20411;-71
2021/11/10 02:37:22;;;;;;;1656.00;324.52;;;;;14.60;100879.00;;;;5108396;28;20051;-71
2021/11/10 02:39:52;;;;;;;208.40;49.45;;;;;14.60;100885.00;;;;5110079;28;20409;-71
2021/11/10 02:42:23;;;;;;;1663.00;342.73;;;;;14.60;100894.00;;;;5110215;28;20138;-71
2021/11/10 02:44:54;;;;;;;687.80;143.82;;;;;14.80;100879.00;;;;5110307;28;20036;-71
2021/11/10 02:47:29;;;;;;;1384.35;191.20;;;;;14.90;100879.00;;;;5093496;28;20490;-73
2021/11/10 02:49:59;;;;;;;1999.90;281.80;;;;;15.00;100883.00;;;;5109742;28;20600;-72
2021/11/10 02:52:28;;;;;;;1966.85;378.50;;;;;15.00;100896.00;;;;5109947;28;20046;-71
2021/11/10 02:54:58;;;;;;;1975.43;254.27;;;;;15.10;100873.00;;;;5109797;28;20105;-70
2021/11/10 02:57:28;;;;;;;1999.90;446.58;;;;;15.00;100903.00;;;;5109270;28;20082;-71
2021/11/10 02:59:58;;;;;;;1999.90;635.00;;;;;14.90;100880.00;;;;5091723;28;20048;-71
2021/11/10 03:02:29;;;;;;;1509.05;304.10;;;;;14.90;100899.00;;;;5091121;28;20092;-71
2021/11/10 03:05:06;;;;;;;1099.80;65.85;;;;;14.90;100864.00;;;;5091376;28;20098;-72
2021/11/10 03:07:35;;;;;;;1276.63;113.35;;;;;14.90;100888.00;;;;5091390;28;20058;-71
2021/11/10 03:10:06;;;;;;;1193.82;184.65;;;;;14.80;100872.00;;;;5091566;28;20047;-72
2021/11/10 03:12:44;;;;;;;388.25;38.80;;;;;14.70;100889.00;;;;5090594;28;20051;-71
2021/11/10 03:15:18;;;;;;;362.33;18.40;;;;;14.60;100875.00;;;;5091162;28;20051;-72
2021/11/10 03:17:48;;;;;;;680.63;160.57;;;;;14.60;100881.00;;;;5091034;28;20517;-71
2021/11/10 03:20:20;;;;;;;1689.30;180.52;;;;;14.50;100871.00;;;;5091185;28;20490;-71
2021/11/10 03:22:50;;;;;;;348.35;47.17;;;;;14.50;100865.00;;;;5109188;28;20058;-71
2021/11/10 03:25:19;;;;;;;1999.90;477.23;;;;;14.50;100867.00;;;;5090471;28;20046;-71
2021/11/10 03:27:52;;;;;;;935.40;362.05;;;;;14.40;100849.00;;;;5108702;28;20150;-71
2021/11/10 03:30:22;;;;;;;681.53;134.68;;;;;14.30;100861.00;;;;5108777;28;20056;-70
2021/11/10 03:33:07;;;;;;;346.38;78.63;;;;;14.30;100868.00;;;;5090668;28;20040;-71
2021/11/10 03:35:38;;;;;;;1588.13;261.65;;;;;14.50;100853.00;;;;5107408;28;20540;-70
2021/11/10 03:38:15;;;;;;;1999.90;652.65;;;;;14.50;100863.00;;;;5107632;28;20510;-72
2021/11/10 03:40:48;;;;;;;1999.90;384.10;;;;;14.60;100834.00;;;;5090366;28;20131;-71
2021/11/10 03:43:22;;;;;;;1992.45;322.45;;;;;14.70;100832.00;;;;5090039;28;20076;-71
2021/11/10 03:45:56;;;;;;;217.90;24.75;;;;;14.80;100814.00;;;;5090217;28;20075;-71
2021/11/10 03:48:27;;;;;;;461.02;43.03;;;;;14.80;100812.00;;;;5073398;28;20149;-71
2021/11/10 03:50:57;;;;;;;11.25;1.42;;;;;14.70;100810.00;;;;5090335;28;20143;-72
2021/11/10 03:53:27;;;;;;;5.43;0.90;;;;;14.80;100829.00;;;;5108910;28;20063;-71
2021/11/10 03:55:56;;;;;;;1999.90;671.92;;;;;14.70;100819.00;;;;5090269;28;20047;-72
2021/11/10 03:58:26;;;;;;;1989.13;801.80;;;;;14.80;100824.00;;;;5073510;28;20838;-71
2021/11/10 04:00:58;;;;;;;1999.90;999.90;;;;;14.90;100835.00;;;;5089856;28;20529;-72
2021/11/10 04:03:30;;;;;;;7.88;0.90;;;;;15.00;100835.00;;;;5089879;28;20052;-71
2021/11/10 04:06:01;;;;;;;;;;;;;14.90;100826.00;;;;5090828;28;20040;-72
2021/11/10 04:08:34;;;;;;;1681.88;619.35;;;;;14.70;100818.00;;;;5089408;28;20405;-71
2021/11/10 04:11:04;;;;;;;9.13;1.17;;;;;14.70;100808.00;;;;5089303;28;20102;-71
2021/11/10 04:13:34;;;;;;;467.75;169.18;;;;;14.60;100827.00;;;;5107659;28;20047;-71
2021/11/10 04:16:04;;;;;;;1999.90;542.90;;;;;14.50;100798.00;;;;5090168;28;20414;-70
2021/11/10 04:18:35;;;;;;;285.95;14.30;;;;;14.40;100811.00;;;;5106706;28;20078;-70
2021/11/10 04:21:13;;;;;;;739.97;79.30;;;;;14.40;100809.00;;;;5089726;28;20051;-71
2021/11/10 04:23:43;;;;;;;1990.05;328.52;;;;;14.40;100787.00;;;;5089674;28;20044;-71
2021/11/10 04:26:15;;;;;;;363.55;66.03;;;;;14.50;100802.00;;;;5089821;28;20067;-71
2021/11/10 04:28:46;;;;;;;0.00;0.00;;;;;14.50;100800.00;;;;5089472;28;20059;-71
2021/11/10 04:31:17;;;;;;;64.47;3.83;;;;;14.50;100765.00;;;;5089569;28;20047;-71
2021/11/10 04:33:49;;;;;;;0.73;0.73;;;;;14.60;100785.00;;;;5090109;28;20555;-73
2021/11/10 04:36:21;;;;;;;543.67;86.20;;;;;14.60;100772.00;;;;5088995;28;20063;-70
2021/11/10 04:38:57;;;;;;;511.65;100.03;;;;;14.70;100777.00;;;;5089799;28;20065;-72
2021/11/10 04:41:27;;;;;;;0.00;0.00;;;;;14.60;100795.00;;;;5089839;28;20046;-72
2021/11/10 04:43:59;;;;;;;656.92;69.15;;;;;14.50;100801.00;;;;5089509;28;20051;-70
2021/11/10 04:46:35;;;;;;;0.00;0.00;;;;;14.50;100775.00;;;;5106503;28;20054;-71
2021/11/10 04:49:06;;;;;;;314.20;45.35;;;;;14.40;100778.00;;;;5107539;28;20414;-71
2021/11/10 04:51:36;;;;;;;0.00;0.00;;;;;14.30;100788.00;;;;5107689;28;20130;-70
2021/11/10 04:54:09;;;;;;;0.00;0.00;;;;;14.30;100799.00;;;;5089294;28;20052;-72
2021/11/10 04:56:40;;;;;;;1344.63;137.98;;;;;14.30;100782.00;;;;5088663;28;20130;-71
2021/11/10 04:59:11;;;;;;;0.00;0.00;;;;;14.40;100794.00;;;;5105926;28;20063;-71
2021/11/10 05:01:51;;;;;;;0.00;0.00;;;;;14.40;100784.00;;;;5088527;28;20135;-71
2021/11/10 05:04:21;;;;;;;0.00;0.00;;;;;14.20;100780.00;;;;5107659;28;20131;-71
2021/11/10 05:06:50;;;;;;;0.00;0.00;;;;;14.00;100772.00;;;;5089136;28;20043;-71
2021/11/10 05:09:20;;;;;;;0.00;0.00;;;;;13.90;100781.00;;;;5089267;28;20544;-71
2021/11/10 05:11:50;;;;;;;0.00;0.00;;;;;13.90;100799.00;;;;5088869;28;20094;-70
2021/11/10 05:14:20;;;;;;;0.00;0.00;;;;;13.90;100784.00;;;;5088700;28;20055;-72
2021/11/10 05:16:51;;;;;;;51.60;4.20;;;;;13.90;100797.00;;;;5089330;28;20047;-70
2021/11/10 05:19:21;;;;;;;0.00;0.00;;;;;13.80;100782.00;;;;5088531;28;20226;-71
2021/11/10 05:21:50;;;;;;;0.00;0.00;;;;;13.60;100811.00;;;;5088624;28;20074;-72
2021/11/10 05:24:22;;;;;;;0.00;0.00;;;;;13.50;100790.00;;;;5089445;28;20051;-71
2021/11/10 05:26:52;;;;;;;0.00;0.00;;;;;13.40;100797.00;;;;5107161;28;20036;-71
2021/11/10 05:29:22;;;;;;;0.00;0.00;;;;;13.30;100812.00;;;;5107442;28;20048;-71
2021/11/10 05:31:52;;;;;;;102.38;7.88;;;;;13.30;100812.00;;;;5106638;28;20048;-71
2021/11/10 05:34:21;;;;;;;0.00;0.00;;;;;13.20;100805.00;;;;5088846;28;20511;-71
2021/11/10 05:36:51;;;;;;;0.00;0.00;;;;;13.20;100772.00;;;;5106770;28;20054;-71
2021/11/10 05:39:20;;;;;;;0.00;0.00;;;;;13.20;100768.00;;;;5106823;28;20415;-71
2021/11/10 05:41:50;;;;;;;0.00;0.00;;;;;13.10;100779.00;;;;5106881;28;20081;-71
2021/11/10 05:44:20;;;;;;;0.00;0.00;;;;;13.10;100784.00;;;;5106970;28;20502;-71
2021/11/10 05:46:49;;;;;;;0.00;0.00;;;;;13.00;100790.00;;;;5106798;28;20039;-71
2021/11/10 05:49:18;;;;;;;0.00;0.00;;;;;13.00;100782.00;;;;5106689;28;20047;-71
2021/11/10 05:51:48;;;;;;;0.00;0.00;;;;;13.00;100801.00;;;;5107346;28;20048;-71
2021/11/10 05:54:17;;;;;;;0.00;0.00;;;;;13.00;100797.00;;;;5107202;28;20417;-71
2021/11/10 05:56:47;;;;;;;0.00;0.00;;;;;12.90;100787.00;;;;5106897;28;20048;-71
2021/11/10 05:59:18;;;;;;;0.00;0.00;;;;;12.80;100777.00;;;;5106923;28;20044;-71
2021/11/10 06:01:48;;;;;;;0.00;0.00;;;;;12.80;100786.00;;;;5106482;28;20066;-71
2021/11/10 06:04:18;;;;;;;0.00;0.00;;;;;12.80;100807.00;;;;5106888;28;20047;-71
2021/11/10 06:06:48;;;;;;;0.00;0.00;;;;;12.80;100808.00;;;;5106849;28;20577;-72
2021/11/10 06:09:18;;;;;;;0.00;0.00;;;;;12.70;100798.00;;;;5106583;28;20051;-71
2021/11/10 06:11:47;;;;;;;0.00;0.00;;;;;12.70;100796.00;;;;5106746;28;20043;-72
2021/11/10 06:14:17;;;;;;;0.00;0.00;;;;;12.70;100788.00;;;;5089129;28;20815;-70
2021/11/10 06:16:46;;;;;;;0.00;0.00;;;;;12.70;100791.00;;;;5088805;28;20050;-71
2021/11/10 06:19:15;;;;;;;0.00;0.00;;;;;12.70;100797.00;;;;5106474;28;20050;-71
2021/11/10 06:21:45;;;;;;;0.00;0.00;;;;;12.70;100789.00;;;;5106336;28;20049;-71
2021/11/10 06:24:17;;;;;;;0.00;0.00;;;;;12.60;100794.00;;;;5106320;28;20039;-72
2021/11/10 06:26:49;;;;;;;0.00;0.00;;;;;12.60;100799.00;;;;5087558;28;20159;-71
2021/11/10 06:29:22;;;;;;;0.00;0.00;;;;;12.60;100784.00;;;;5106804;28;20047;-71
2021/11/10 06:31:52;;;;;;;0.00;0.00;;;;;12.70;100788.00;;;;5088182;28;20565;-72
2021/11/10 06:34:21;;;;;;;0.00;0.00;;;;;12.60;100800.00;;;;5109983;28;20540;-71
2021/11/10 06:36:52;;;;;;;0.00;0.00;;;;;12.60;100805.00;;;;5110558;28;20051;-72
2021/11/10 06:39:22;;;;;;;0.00;0.00;;;;;12.60;100777.00;;;;5109980;28;20055;-72
2021/11/10 06:41:52;;;;;;;0.00;0.00;;;;;12.50;100794.00;;;;5110531;28;20047;-71
2021/11/10 06:44:22;;;;;;;0.00;0.00;;;;;12.50;100804.00;;;;5110258;28;20494;-71
2021/11/10 06:46:51;;;;;;;0.00;0.00;;;;;12.50;100790.00;;;;5110431;28;20421;-72
2021/11/10 06:49:20;;;;;;;0.00;0.00;;;;;12.50;100774.00;;;;5109931;28;20039;-71
2021/11/10 06:51:50;;;;;;;0.00;0.00;;;;;12.40;100788.00;;;;5109474;28;20044;-70
2021/11/10 06:54:20;;;;;;;0.00;0.00;;;;;12.50;100773.00;;;;5092136;28;20187;-72
2021/11/10 06:56:50;;;;;;;0.00;0.00;;;;;12.50;100781.00;;;;5091665;28;20051;-70
2021/11/10 06:59:20;;;;;;;0.00;0.00;;;;;12.40;100777.00;;;;5110296;28;20048;-71
2021/11/10 07:01:51;;;;;;;0.00;0.00;;;;;12.50;100778.00;;;;5109913;28;20084;-71
2021/11/10 07:04:20;;;;;;;0.00;0.00;;;;;12.60;100761.00;;;;5109341;28;20578;-71
2021/11/10 07:06:51;;;;;;;0.00;0.00;;;;;12.60;100770.00;;;;5109653;28;20089;-71
2021/11/10 07:09:20;;;;;;;0.00;0.00;;;;;12.60;100755.00;;;;5109932;28;20483;-70
2021/11/10 07:11:50;;;;;;;0.00;0.00;;;;;12.70;100762.00;;;;5109760;28;20047;-71
2021/11/10 07:14:19;;;;;;;0.00;0.00;;;;;12.80;100758.00;;;;5109463;28;20048;-72
2021/11/10 07:16:49;;;;;;;0.00;0.00;;;;;13.00;100779.00;;;;5091297;28;20558;-72
2021/11/10 07:19:19;;;;;;;0.00;0.00;;;;;12.90;100763.00;;;;5109670;28;20097;-72
2021/11/10 07:21:49;;;;;;;0.00;0.00;;;;;12.80;100768.00;;;;5109503;28;20040;-71
2021/11/10 07:24:18;;;;;;;0.00;0.00;;;;;12.70;100754.00;;;;5109450;28;20148;-72
2021/11/10 07:26:47;;;;;;;0.00;0.00;;;;;12.60;100753.00;;;;5108964;28;20050;-71
2021/11/10 07:29:17;;;;;;;0.00;0.00;;;;;12.60;100752.00;;;;5109202;28;20074;-71
2021/11/10 07:31:47;;;;;;;0.00;0.00;;;;;12.60;100759.00;;;;5109232;28;20538;-70
2021/11/10 07:34:16;;;;;;;0.00;0.00;;;;;12.80;100773.00;;;;5108685;28;20043;-71
2021/11/10 07:36:46;;;;;;;0.00;0.00;;;;;12.90;100779.00;;;;5108928;28;20512;-72
2021/11/10 07:39:15;;;;;;;0.00;0.00;;;;;12.90;100777.00;;;;5109265;28;20422;-71
2021/11/10 07:41:47;;;;;;;0.00;0.00;;;;;12.90;100791.00;;;;5108742;28;20586;-72
2021/11/10 07:44:17;;;;;;;0.00;0.00;;;;;12.70;100812.00;;;;5109337;28;20036;-71
2021/11/10 07:46:53;;;;;;;0.00;0.00;;;;;12.60;100782.00;;;;5109887;28;20044;-71
2021/11/10 07:49:28;;;;;;;0.00;0.00;;;;;12.40;100804.00;;;;5109173;28;20041;-71
2021/11/10 07:51:59;;;;;;;0.00;0.00;;;;;12.40;100799.00;;;;5108258;28;20050;-71
2021/11/10 07:54:28;;;;;;;;;;;;;12.30;100817.00;;;;5108430;28;20046;-71
2021/11/10 07:56:57;;;;;;;0.00;0.00;;;;;12.30;100801.00;;;;5108589;28;19919;-71
2021/11/10 07:59:27;;;;;;;0.00;0.00;;;;;12.30;100843.00;;;;5090307;28;20109;-71
2021/11/10 08:01:57;;;;;;;0.00;0.00;;;;;12.30;100807.00;;;;5108178;28;20089;-72
2021/11/10 08:04:27;;;;;;;0.00;0.00;;;;;12.40;100823.00;;;;5090538;28;20063;-71
2021/11/10 08:06:56;;;;;;;0.00;0.00;;;;;12.40;100828.00;;;;5108597;28;20055;-71
2021/11/10 08:09:25;;;;;;;0.00;0.00;;;;;12.30;100827.00;;;;5108296;28;20043;-71
2021/11/10 08:11:55;;;;;;;0.00;0.00;;;;;12.30;100815.00;;;;5108614;28;20046;-71
2021/11/10 08:14:26;;;;;;;0.00;0.00;;;;;12.30;100828.00;;;;5108463;28;20035;-72
2021/11/10 08:16:56;;;;;;;0.00;0.00;;;;;12.30;100838.00;;;;5108678;28;20047;-72
2021/11/10 08:19:26;;;;;;;0.00;0.00;;;;;12.30;100857.00;;;;5108271;28;20039;-72
2021/11/10 08:21:56;;;;;;;0.00;0.00;;;;;12.30;100797.00;;;;5108031;28;20039;-71
2021/11/10 08:24:29;;;;;;;0.00;0.00;;;;;12.20;100866.00;;;;5107707;28;20039;-71
2021/11/10 08:26:59;;;;;;;0.00;0.00;;;;;12.20;100859.00;;;;5108416;28;20119;-72
2021/11/10 08:29:29;;;;;;;0.00;0.00;;;;;12.20;100851.00;;;;5108217;28;20077;-71
2021/11/10 08:31:58;;;;;;;0.00;0.00;;;;;12.20;100836.00;;;;5108193;28;20036;-72
2021/11/10 08:34:28;;;;;;;0.00;0.00;;;;;12.20;100830.00;;;;5107958;28;20052;-71
2021/11/10 08:36:58;;;;;;;0.00;0.00;;;;;12.20;100884.00;;;;5107892;28;20054;-72
2021/11/10 08:39:28;;;;;;;0.00;0.00;;;;;12.20;100878.00;;;;5107552;28;20043;-71
2021/11/10 08:42:01;;;;;;;0.08;0.08;;;;;12.20;100882.00;;;;5107808;28;20046;-71
2021/11/10 08:44:33;;;;;;;0.00;0.00;;;;;12.30;100889.00;;;;5089813;28;20044;-71
2021/11/10 08:47:04;;;;;;;0.00;0.00;;;;;12.30;100905.00;;;;5108050;28;20048;-71
2021/11/10 08:49:35;;;;;;;0.00;0.00;;;;;12.30;100893.00;;;;5107472;28;20040;-71
2021/11/10 08:52:09;;;;;;;0.00;0.00;;;;;12.40;100898.00;;;;5107838;28;20044;-71
2021/11/10 08:54:39;;;;;;;0.00;0.00;;;;;12.50;100921.00;;;;5107116;28;20044;-72
2021/11/10 08:57:08;;;;;;;0.00;0.00;;;;;12.60;100911.00;;;;5108366;28;20050;-72
2021/11/10 08:59:38;;;;;;;0.00;0.00;;;;;12.80;100909.00;;;;5107569;28;20088;-71
2021/11/10 09:02:08;;;;;;;0.00;0.00;;;;;13.00;100905.00;;;;5107669;28;20135;-72
2021/11/10 09:04:38;;;;;;;0.00;0.00;;;;;13.10;100915.00;;;;5107435;28;20101;-72
2021/11/10 09:07:08;;;;;;;0.00;0.00;;;;;13.20;100946.00;;;;5107011;28;20040;-71
2021/11/10 09:09:38;;;;;;;0.00;0.00;;;;;13.40;100920.00;;;;5107843;28;20058;-71
2021/11/10 09:12:09;;;;;;;0.00;0.00;;;;;13.60;100945.00;;;;5107514;28;20544;-72
2021/11/10 09:14:39;;;;;;;0.00;0.00;;;;;13.70;100939.00;;;;5107220;28;20046;-71
2021/11/10 09:17:10;;;;;;;0.00;0.00;;;;;13.80;100958.00;;;;5107252;28;20054;-71
2021/11/10 09:19:40;;;;;;;0.00;0.00;;;;;13.90;100974.00;;;;5107414;28;20069;-71
2021/11/10 09:22:10;;;;;;;0.13;0.13;;;;;14.00;100964.00;;;;5107536;28;20035;-72
2021/11/10 09:24:39;;;;;;;0.00;0.00;;;;;14.30;100980.00;;;;5107041;28;20043;-72
2021/11/10 09:27:10;;;;;;;0.00;0.00;;;;;14.60;100952.00;;;;5107077;28;20046;-72
2021/11/10 09:29:41;;;;;;;0.00;0.00;;;;;14.90;100959.00;;;;5088699;28;20059;-72
2021/11/10 09:32:10;;;;;;;0.35;0.35;;;;;15.20;100984.00;;;;5106527;28;20442;-71
2021/11/10 09:34:40;;;;;;;0.00;0.00;;;;;15.30;100989.00;;;;5107144;28;20541;-71
2021/11/10 09:37:10;;;;;;;0.00;0.00;;;;;15.20;100985.00;;;;5106840;28;20065;-71
2021/11/10 09:39:39;;;;;;;0.00;0.00;;;;;15.10;100988.00;;;;5106281;28;20044;-71
2021/11/10 09:42:10;;;;;;;0.00;0.00;;;;;15.00;100990.00;;;;5106202;28;20131;-71
2021/11/10 09:44:41;;;;;;;5.50;0.32;;;;;15.00;100974.00;;;;5106533;28;20044;-71
2021/11/10 09:47:12;;;;;;;0.00;0.00;;;;;15.00;100980.00;;;;5106477;28;20464;-71
2021/11/10 09:49:41;;;;;;;0.00;0.00;;;;;15.00;100981.00;;;;5106901;28;20047;-71
2021/11/10 09:52:11;;;;;;;0.30;0.30;;;;;15.20;100970.00;;;;5107018;28;20089;-72
2021/11/10 09:54:41;;;;;;;0.00;0.00;;;;;15.50;100979.00;;;;5106823;28;20055;-72
2021/11/10 09:57:10;;;;;;;0.00;0.00;;;;;15.50;100982.00;;;;5106549;28;20425;-74
2021/11/10 09:59:39;;;;;;;0.00;0.00;;;;;15.60;100985.00;;;;5088575;28;20050;-72
2021/11/10 10:02:41;;;;;;;0.00;0.00;;;;;15.80;100996.00;;;;5106665;28;20087;-73
2021/11/10 10:05:12;;;;;;;0.00;0.00;;;;;16.50;100900.00;;;;5107146;28;20048;-73
2021/11/10 10:07:42;;;;;;;0.00;0.00;;;;;23.00;100760.00;;;;5108184;28;20048;-72
2021/11/10 10:10:12;;;;;;;0.00;0.00;;;;;26.00;100732.00;;;;5110503;28;20047;-72
2021/11/10 10:12:41;;;;;;;0.00;0.00;;;;;27.50;100723.00;;;;5092304;28;20055;-72
2021/11/10 10:15:11;;;;;;;0.00;0.00;;;;;27.90;100725.00;;;;5110463;28;20051;-73
2021/11/10 10:17:43;;;;;;;0.00;0.00;;;;;28.50;100706.00;;;;5109996;28;20055;-73
2021/11/10 10:20:31;;;;;;;0.00;0.00;;;;;29.00;100718.00;;;;5091753;28;20154;-73
2021/11/10 10:23:09;;;;;;;22.15;7.03;;;;;29.70;100736.00;;;;5109898;28;20439;-72
2021/11/10 10:25:46;;;;;;;0.00;0.00;;;;;30.10;100732.00;;;;5110043;28;20070;-73
2021/11/10 10:28:27;;;;;;;0.00;0.00;;;;;29.90;100747.00;;;;5109678;28;20044;-72
2021/11/10 10:31:10;;;;;;;0.03;0.03;;;;;27.10;100880.00;;;;5110653;28;20514;-73
2021/11/10 10:33:46;;;;;;;0.00;0.00;;;;;25.10;100890.00;;;;5110255;28;20126;-73
2021/11/10 10:36:21;;;;;;;0.00;0.00;;;;;23.80;100907.00;;;;5109887;28;20502;-73
2021/11/10 10:38:57;;;;;;;0.00;0.00;;;;;22.30;100926.00;;;;5109542;28;20125;-72
2021/11/10 10:41:53;;;;;;;0.00;0.00;;;;;27.70;100772.00;;;;5109897;28;20112;-71
2021/11/10 10:44:27;;;;;;;0.00;0.00;;;;;30.10;100738.00;;;;5108118;28;20062;-72
2021/11/10 10:47:01;;;;;;;0.00;0.00;;;;;31.20;100733.00;;;;5109623;28;20074;-72
2021/11/10 10:49:33;;;;;;;0.00;0.00;;;;;31.00;100728.00;;;;5110298;28;20861;-71
2021/11/10 10:52:20;;;;;;;0.22;0.22;;;;;32.10;100733.00;;;;5110139;28;20391;-72
2021/11/10 10:54:51;;;;;;;1.90;0.88;;;;;33.10;100752.00;;;;5110107;28;20047;-72
2021/11/10 10:57:22;;;;;;;0.95;0.88;;;;;31.80;100741.00;;;;5109946;28;20043;-72
2021/11/10 10:59:52;;;;;;;;;;;;;30.50;100751.00;;;;5110427;28;20510;-72
2021/11/10 11:02:26;;;;;;;0.00;0.00;;;;;30.80;100762.00;;;;5109618;28;20286;-72
2021/11/10 11:04:57;;;;;;;0.10;0.10;;;;;31.40;100787.00;;;;5109631;28;20044;-72
2021/11/10 11:07:31;;;;;;;0.00;0.00;;;;;31.80;100760.00;;;;5109363;28;20158;-72
2021/11/10 11:10:06;;;;;;;0.10;0.10;;;;;31.10;100762.00;;;;5109540;28;20048;-72
2021/11/10 11:12:53;;;;;;;0.00;0.00;;;;;31.50;100741.00;;;;5109604;28;20054;-72
2021/11/10 11:15:33;;;;;;;0.00;0.00;;;;;31.10;100736.00;;;;5109510;28;20036;-72
2021/11/10 11:18:03;;;;;;;0.08;0.08;;;;;30.20;100786.00;;;;5109544;28;20110;-73
2021/11/10 11:20:35;;;;;;;0.08;0.08;;;;;30.20;100763.00;;;;5108888;28;20039;-71
2021/11/10 11:23:06;;;;;;;0.00;0.00;;;;;30.00;100715.00;;;;5109425;28;20506;-72
2021/11/10 11:25:39;;;;;;;1.80;0.10;;;;;29.00;100684.00;;;;5108802;28;20525;-72
2021/11/10 11:28:13;;;;;;;0.17;0.17;;;;;24.60;100932.00;;;;5109140;28;20093;-72
2021/11/10 11:30:52;;;;;;;0.25;0.20;;;;;27.40;100694.00;;;;5091354;28;20040;-71
2021/11/10 11:33:25;;;;;;;0.80;0.08;;;;;24.60;100975.00;;;;5109078;28;20043;-73
2021/11/10 11:36:01;;;;;;;0.00;0.00;;;;;23.70;100968.00;;;;5108889;28;20058;-73
2021/11/10 11:38:33;;;;;;;0.00;0.00;;;;;25.40;100855.00;;;;5109397;28;20118;-72
2021/11/10 11:41:04;;;;;;;0.00;0.00;;;;;25.60;100891.00;;;;5108736;28;20036;-73
2021/11/10 11:43:33;;;;;;;0.43;0.20;;;;;25.80;100902.00;;;;5109098;28;20043;-73
2021/11/10 11:46:04;;;;;;;0.00;0.00;;;;;26.00;100915.00;;;;5108994;28;20074;-72
2021/11/10 11:48:34;;;;;;;7.57;1.17;;;;;24.50;100966.00;;;;5108990;28;20051;-73
2021/11/10 11:51:05;;;;;;;0.00;0.00;;;;;25.20;100925.00;;;;5108848;28;20055;-73
2021/11/10 11:53:38;;;;;;;0.00;0.00;;;;;25.20;100944.00;;;;5108282;28;20484;-72
2021/11/10 11:56:12;;;;;;;0.00;0.00;;;;;25.40;100916.00;;;;5108855;28;20075;-71
2021/11/10 11:58:47;;;;;;;0.00;0.00;;;;;24.80;100968.00;;;;5108530;28;20131;-73
2021/11/10 12:01:22;;;;;;;0.15;0.10;;;;;23.50;100993.00;;;;5109112;28;20043;-72
2021/11/10 12:03:53;;;;;;;0.00;0.00;;;;;23.60;100898.00;;;;5090417;28;20425;-72
2021/11/10 12:06:24;;;;;;;0.00;0.00;;;;;24.40;100917.00;;;;5108344;28;20036;-71
2021/11/10 12:08:56;;;;;;;0.00;0.00;;;;;25.10;100985.00;;;;5108231;28;20043;-72
2021/11/10 12:11:39;;;;;;;0.00;0.00;;;;;24.80;100998.00;;;;5108337;28;20048;-72
2021/11/10 12:14:13;;;;;;;1.45;0.32;;;;;23.30;100998.00;;;;5108269;28;20044;-73
2021/11/10 12:16:45;;;;;;;0.00;0.00;;;;;24.40;100937.00;;;;5108625;28;20040;-71